Terminal Aerodrome Forecast
Issued by NWS

Home | Current Version | Previous Version | Text Only | Print | Product List | Glossary On
Versions: 1 2 3 4 5 6 7 8 9 10 11 12 13 14 15 16 17 18 19 20 21
000
FTUS43 KDTX 231720
TAFPTK
TAF
KPTK 231720Z 2318/2418 12010KT P6SM SCT150
     FM240000 14006KT P6SM OVC080
     FM240500 16008KT 6SM -RA OVC040 WS020/22040KT
     FM240800 20010KT P6SM SCT030 BKN050 WS020/23045KT
     FM241400 23014G25KT P6SM BKN020=

USA.gov is the U.S. government's official web portal to all federal, state and local government web resources and services.